createdAt,value
2017-09-04T00:00:36.911Z,3.60
2017-09-04T00:03:05.195Z,4.20
2017-09-04T00:05:33.449Z,4.60
2017-09-04T00:08:01.812Z,4.30
2017-09-04T00:10:30.174Z,3.80
2017-09-04T00:12:58.420Z,4.77
2017-09-04T00:15:26.915Z,4.00
2017-09-04T00:17:55.351Z,4.03
2017-09-04T00:20:23.709Z,4.20
2017-09-04T00:22:51.989Z,3.87
2017-09-04T00:25:20.315Z,3.30
2017-09-04T00:27:48.661Z,3.97
2017-09-04T00:30:16.911Z,4.23
2017-09-04T00:32:45.851Z,4.27
2017-09-04T00:35:14.890Z,3.50
2017-09-04T00:37:43.155Z,4.47
2017-09-04T00:40:11.693Z,3.63
2017-09-04T00:42:40.189Z,3.77
2017-09-04T00:45:08.895Z,3.50
2017-09-04T00:47:37.179Z,3.50
2017-09-04T00:50:05.511Z,4.17
2017-09-04T00:52:33.781Z,4.07
2017-09-04T00:55:02.137Z,4.70
2017-09-04T00:57:30.396Z,3.47
2017-09-04T00:59:58.784Z,4.17
2017-09-04T01:02:27.071Z,4.17
2017-09-04T01:04:55.346Z,3.90
2017-09-04T01:07:23.771Z,4.07
2017-09-04T01:09:52.163Z,5.30
2017-09-04T01:12:20.529Z,4.83
2017-09-04T01:14:48.752Z,3.70
2017-09-04T01:17:17.148Z,4.67
2017-09-04T01:19:45.437Z,4.20
2017-09-04T01:22:19.506Z,4.30
2017-09-04T01:24:47.851Z,3.97
2017-09-04T01:27:16.188Z,3.47
2017-09-04T01:29:44.458Z,4.47
2017-09-04T01:32:12.723Z,4.80
2017-09-04T01:34:41.016Z,4.60
2017-09-04T01:37:09.272Z,4.20
2017-09-04T01:39:37.545Z,4.23
2017-09-04T01:42:05.811Z,4.80
2017-09-04T01:44:34.082Z,4.23
2017-09-04T01:47:02.343Z,3.77
2017-09-04T01:49:30.586Z,4.47
2017-09-04T01:51:59.660Z,4.17
2017-09-04T01:54:27.937Z,4.57
2017-09-04T01:56:56.183Z,4.30
2017-09-04T01:59:25.258Z,3.73
2017-09-04T02:01:53.521Z,4.40
2017-09-04T02:04:22.642Z,4.33
2017-09-04T02:06:51.674Z,4.20
2017-09-04T02:09:19.939Z,3.90
2017-09-04T02:11:48.274Z,4.13
2017-09-04T02:14:16.599Z,4.47
2017-09-04T02:16:44.867Z,4.17
2017-09-04T02:19:13.157Z,4.90
2017-09-04T02:21:41.416Z,5.10
2017-09-04T02:24:09.760Z,4.40
2017-09-04T02:26:38.068Z,4.20
2017-09-04T02:29:06.474Z,4.40
2017-09-04T02:31:34.733Z,3.93
2017-09-04T02:34:02.981Z,4.23
2017-09-04T02:36:31.263Z,4.90
2017-09-04T02:38:59.552Z,4.97
2017-09-04T02:41:27.812Z,4.60
2017-09-04T02:43:56.667Z,4.30
2017-09-04T02:46:24.946Z,4.03
2017-09-04T02:48:53.315Z,5.03
2017-09-04T02:51:21.574Z,4.37
2017-09-04T02:53:49.867Z,4.80
2017-09-04T02:56:18.126Z,5.00
2017-09-04T02:58:46.426Z,4.87
2017-09-04T03:01:14.701Z,5.30
2017-09-04T03:03:42.965Z,3.60
2017-09-04T03:06:11.231Z,5.30
2017-09-04T03:08:39.495Z,4.47
2017-09-04T03:11:07.755Z,5.00
2017-09-04T03:13:36.003Z,4.83
2017-09-04T03:16:04.286Z,3.70
2017-09-04T03:18:32.557Z,5.50
2017-09-04T03:21:00.795Z,5.10
2017-09-04T03:23:29.128Z,5.00
2017-09-04T03:25:57.531Z,4.70
2017-09-04T03:28:26.557Z,4.57
2017-09-04T03:30:54.962Z,5.60
2017-09-04T03:33:23.217Z,4.40
2017-09-04T03:35:51.536Z,4.93
2017-09-04T03:38:19.893Z,5.43
2017-09-04T03:40:48.143Z,5.00
2017-09-04T03:43:16.419Z,4.90
2017-09-04T03:45:44.708Z,5.67
2017-09-04T03:48:13.027Z,4.57
2017-09-04T03:50:41.431Z,5.10
2017-09-04T03:53:10.274Z,4.70
2017-09-04T03:55:38.750Z,4.87
2017-09-04T03:58:30.767Z,4.63
2017-09-04T04:00:59.418Z,4.87
2017-09-04T04:03:28.836Z,5.00
2017-09-04T04:05:57.318Z,5.27
2017-09-04T04:08:26.595Z,5.17
2017-09-04T04:10:55.310Z,4.77
2017-09-04T04:13:23.882Z,4.77
2017-09-04T04:15:53.161Z,4.30
2017-09-04T04:18:21.651Z,5.07
2017-09-04T04:20:51.271Z,5.67
2017-09-04T04:23:26.275Z,5.77
2017-09-04T04:25:54.855Z,5.10
2017-09-04T04:28:23.499Z,5.53
2017-09-04T04:30:51.959Z,6.50
2017-09-04T04:33:20.408Z,5.40
2017-09-04T04:35:49.005Z,5.23
2017-09-04T04:38:17.678Z,5.30
2017-09-04T04:40:46.349Z,6.50
2017-09-04T04:43:15.086Z,5.10
2017-09-04T04:45:44.286Z,5.17
2017-09-04T04:48:13.137Z,6.20
2017-09-04T04:50:42.220Z,5.57
2017-09-04T04:53:11.319Z,6.20
2017-09-04T04:55:40.639Z,6.80
2017-09-04T05:00:43.626Z,6.23
2017-09-04T05:03:12.591Z,5.77
2017-09-04T05:05:42.229Z,5.27
2017-09-04T05:08:12.002Z,5.10
2017-09-04T05:10:42.063Z,5.70
2017-09-04T05:13:11.134Z,6.27
2017-09-04T05:15:39.439Z,5.77
2017-09-04T05:18:07.962Z,6.00
2017-09-04T05:20:39.319Z,6.10
2017-09-04T05:23:07.665Z,6.20
2017-09-04T05:25:39.124Z,6.10
2017-09-04T05:28:07.788Z,6.50
2017-09-04T05:30:37.172Z,6.20
2017-09-04T05:33:06.375Z,6.80
2017-09-04T05:35:36.140Z,6.30
2017-09-04T05:38:04.407Z,5.40
2017-09-04T05:40:32.726Z,5.87
2017-09-04T05:43:01.002Z,7.43
2017-09-04T05:45:30.793Z,6.87
2017-09-04T05:47:59.362Z,7.23
2017-09-04T05:50:27.598Z,7.90
2017-09-04T05:52:56.043Z,6.30
2017-09-04T05:55:26.041Z,7.30
2017-09-04T05:57:55.052Z,6.63
2017-09-04T06:00:24.343Z,6.70
2017-09-04T06:02:52.874Z,9.23
2017-09-04T06:05:21.119Z,7.40
2017-09-04T06:07:49.391Z,7.27
2017-09-04T06:10:17.734Z,8.17
2017-09-04T06:12:46.033Z,7.57
2017-09-04T06:15:14.283Z,8.37
2017-09-04T06:17:42.597Z,7.43
2017-09-04T06:20:10.839Z,9.70
2017-09-04T06:22:39.398Z,7.57
2017-09-04T06:25:07.659Z,8.33
2017-09-04T06:27:36.010Z,7.70
2017-09-04T06:30:04.330Z,9.00
2017-09-04T06:32:34.131Z,9.13
2017-09-04T06:35:02.452Z,8.53
2017-09-04T06:37:30.714Z,9.20
2017-09-04T06:39:59.003Z,8.83
2017-09-04T06:42:29.305Z,8.10
2017-09-04T06:44:58.407Z,8.80
2017-09-04T06:47:26.660Z,10.20
2017-09-04T06:49:55.146Z,10.10
2017-09-04T06:52:23.664Z,8.40
2017-09-04T06:54:52.403Z,9.33
2017-09-04T06:57:21.085Z,9.63
2017-09-04T06:59:49.718Z,9.20
2017-09-04T07:02:18.082Z,10.50
2017-09-04T07:04:46.734Z,10.63
2017-09-04T07:07:16.047Z,8.80
2017-09-04T07:09:44.357Z,9.53
2017-09-04T07:12:13.131Z,9.03
2017-09-04T07:14:41.470Z,9.10
2017-09-04T07:17:09.746Z,8.90
2017-09-04T07:19:38.002Z,9.17
2017-09-04T07:22:06.348Z,9.00
2017-09-04T07:24:34.647Z,9.47
2017-09-04T07:27:02.944Z,9.00
2017-09-04T07:29:31.195Z,9.17
2017-09-04T07:31:59.797Z,9.57
2017-09-04T07:34:28.593Z,9.50
2017-09-04T07:36:57.970Z,10.47
2017-09-04T07:39:26.380Z,9.93
2017-09-04T07:41:54.685Z,9.40
2017-09-04T07:44:23.176Z,9.27
2017-09-04T07:46:51.457Z,18.47
2017-09-04T07:49:19.856Z,10.30
2017-09-04T07:51:49.362Z,12.20
2017-09-04T07:54:17.696Z,9.50
2017-09-04T07:56:46.256Z,8.53
2017-09-04T07:59:14.853Z,9.97
2017-09-04T08:01:43.158Z,9.87
2017-09-04T08:04:12.119Z,11.20
2017-09-04T08:06:40.463Z,8.17
2017-09-04T08:09:08.900Z,8.60
2017-09-04T08:11:37.167Z,8.67
2017-09-04T08:14:06.147Z,9.00
2017-09-04T08:16:34.663Z,8.47
2017-09-04T08:19:03.196Z,8.33
2017-09-04T08:21:31.854Z,8.73
2017-09-04T08:24:00.656Z,9.43
2017-09-04T08:26:29.514Z,7.87
2017-09-04T08:28:58.739Z,8.97
2017-09-04T08:31:27.000Z,8.27
2017-09-04T08:33:56.100Z,8.57
2017-09-04T08:36:25.262Z,8.40
2017-09-04T08:38:54.721Z,8.97
2017-09-04T08:41:22.988Z,8.37
2017-09-04T08:43:51.415Z,7.87
2017-09-04T08:46:19.702Z,7.97
2017-09-04T08:48:48.001Z,6.87
2017-09-04T08:51:17.063Z,7.40
2017-09-04T08:53:46.171Z,6.40
2017-09-04T08:56:14.802Z,6.60
2017-09-04T08:58:43.779Z,6.47
2017-09-04T09:01:12.320Z,6.47
2017-09-04T09:03:42.642Z,6.80
2017-09-04T09:06:11.793Z,5.57
2017-09-04T09:08:40.555Z,5.13
2017-09-04T09:11:09.475Z,5.47
2017-09-04T09:13:37.841Z,5.70
2017-09-04T09:16:06.082Z,5.63
2017-09-04T09:18:34.356Z,5.73
2017-09-04T09:21:02.892Z,5.10
2017-09-04T09:23:31.985Z,4.47
2017-09-04T09:26:00.226Z,5.73
2017-09-04T09:28:28.569Z,3.57
2017-09-04T09:30:56.903Z,5.43
2017-09-04T09:33:25.244Z,5.27
2017-09-04T09:35:53.537Z,4.80
2017-09-04T09:38:21.808Z,4.50
2017-09-04T09:40:50.091Z,4.70
2017-09-04T09:43:18.374Z,4.43
2017-09-04T09:45:46.641Z,4.97
2017-09-04T09:48:16.065Z,4.70
2017-09-04T09:50:44.351Z,3.40
2017-09-04T09:53:12.688Z,4.13
2017-09-04T09:55:40.999Z,4.17
2017-09-04T09:58:09.919Z,5.10
2017-09-04T10:00:38.166Z,3.93
2017-09-04T10:03:06.504Z,4.80
2017-09-04T10:05:35.692Z,4.20
2017-09-04T10:08:04.882Z,4.80
2017-09-04T10:10:33.600Z,4.30
2017-09-04T10:13:01.896Z,4.40
2017-09-04T10:15:30.369Z,3.50
2017-09-04T10:17:58.665Z,3.30
2017-09-04T10:20:26.909Z,4.33
2017-09-04T10:22:56.413Z,3.60
2017-09-04T10:25:24.822Z,3.20
2017-09-04T10:27:53.881Z,3.77
2017-09-04T10:30:22.182Z,3.90
2017-09-04T10:32:50.519Z,3.23
2017-09-04T10:35:18.834Z,3.30
2017-09-04T10:37:47.611Z,4.93
2017-09-04T10:40:17.369Z,4.67
2017-09-04T10:42:45.774Z,3.70
2017-09-04T10:45:15.225Z,3.80
2017-09-04T10:47:43.660Z,3.67
2017-09-04T10:50:12.733Z,5.00
2017-09-04T10:52:41.018Z,3.80
2017-09-04T10:55:10.078Z,5.77
2017-09-04T10:57:39.376Z,4.37
2017-09-04T11:00:07.673Z,4.00
2017-09-04T11:02:37.679Z,3.80
2017-09-04T11:05:05.968Z,4.07
2017-09-04T11:07:34.444Z,3.90
2017-09-04T11:10:02.874Z,3.37
2017-09-04T11:12:31.140Z,3.57
2017-09-04T11:14:59.396Z,3.50
2017-09-04T11:17:27.739Z,4.10
2017-09-04T11:19:59.975Z,3.67
2017-09-04T11:22:29.859Z,3.97
2017-09-04T11:24:58.310Z,4.57
2017-09-04T11:27:26.910Z,3.70
2017-09-04T11:29:56.209Z,4.30
2017-09-04T11:32:25.464Z,4.57
2017-09-04T11:34:53.733Z,5.00
2017-09-04T11:37:22.960Z,4.00
2017-09-04T11:39:51.257Z,4.70
2017-09-04T11:42:20.466Z,4.20
2017-09-04T11:44:48.880Z,3.77
2017-09-04T11:47:17.179Z,4.63
2017-09-04T11:49:46.035Z,3.97
2017-09-04T11:52:14.333Z,5.00
2017-09-04T11:54:42.607Z,4.40
2017-09-04T11:57:11.740Z,4.30
2017-09-04T11:59:40.920Z,4.77
2017-09-04T12:02:09.333Z,3.37
2017-09-04T12:04:37.599Z,3.93
2017-09-04T12:07:05.931Z,4.57
2017-09-04T12:09:35.442Z,4.40
2017-09-04T12:12:03.696Z,3.73
2017-09-04T12:14:32.067Z,4.37
2017-09-04T12:17:00.359Z,4.17
2017-09-04T12:19:29.693Z,4.07
2017-09-04T12:21:57.947Z,4.00
2017-09-04T12:24:26.267Z,3.57
2017-09-04T12:26:54.526Z,3.50
2017-09-04T12:29:22.774Z,3.80
2017-09-04T12:31:52.508Z,4.87
2017-09-04T12:34:20.776Z,3.90
2017-09-04T12:36:49.076Z,3.47
2017-09-04T12:39:18.403Z,4.30
2017-09-04T12:41:46.977Z,4.10
2017-09-04T12:44:15.276Z,3.40
2017-09-04T12:46:43.558Z,3.63
2017-09-04T12:49:11.829Z,3.20
2017-09-04T12:51:40.185Z,4.03
2017-09-04T12:54:10.209Z,3.30
2017-09-04T12:56:38.523Z,3.10
2017-09-04T12:59:06.796Z,4.17
2017-09-04T13:01:35.211Z,4.10
2017-09-04T13:04:03.470Z,3.10
2017-09-04T13:06:31.871Z,3.60
2017-09-04T13:09:00.308Z,3.50
2017-09-04T13:11:28.725Z,3.13
2017-09-04T13:14:02.828Z,2.97
2017-09-04T13:16:37.784Z,3.67
2017-09-04T13:19:11.705Z,3.03
2017-09-04T13:21:45.829Z,3.00
2017-09-04T13:24:31.981Z,2.87
2017-09-04T13:27:19.043Z,3.47
2017-09-04T13:30:02.570Z,3.40
2017-09-04T13:32:52.014Z,3.40
2017-09-04T13:35:37.081Z,3.10
2017-09-04T13:38:11.205Z,3.20
2017-09-04T13:40:45.347Z,2.97
2017-09-04T13:43:19.176Z,3.80
2017-09-04T13:46:07.832Z,3.60
2017-09-04T13:48:41.953Z,3.17
2017-09-04T13:51:27.997Z,4.00
2017-09-04T13:54:02.027Z,2.83
2017-09-04T13:56:48.930Z,3.07
2017-09-04T13:59:23.726Z,3.13
2017-09-04T14:02:09.952Z,3.40
2017-09-04T14:04:44.001Z,3.37
2017-09-04T14:07:17.903Z,3.40
2017-09-04T14:10:01.112Z,3.27
2017-09-04T14:12:46.136Z,3.43
2017-09-04T14:15:33.198Z,3.43
2017-09-04T14:18:07.075Z,3.20
2017-09-04T14:20:35.514Z,3.70
2017-09-04T14:23:03.831Z,3.50
2017-09-04T14:25:32.091Z,3.50
2017-09-04T14:28:00.430Z,3.60
2017-09-04T14:30:29.480Z,4.20
2017-09-04T14:32:57.737Z,4.07
2017-09-04T14:35:26.706Z,3.93
2017-09-04T14:37:54.975Z,3.20
2017-09-04T14:40:37.805Z,4.90
2017-09-04T14:43:06.189Z,4.40
2017-09-04T14:45:34.599Z,4.40
2017-09-04T14:48:06.635Z,3.60
2017-09-04T14:50:34.957Z,4.10
2017-09-04T14:53:03.245Z,3.80
2017-09-04T14:55:31.672Z,4.03
2017-09-04T14:57:59.933Z,4.07
2017-09-04T15:00:28.192Z,3.77
2017-09-04T15:02:56.780Z,4.57
2017-09-04T15:05:26.085Z,5.17
2017-09-04T15:07:55.109Z,6.80
2017-09-04T15:10:23.364Z,4.50
2017-09-04T15:12:52.561Z,4.40
2017-09-04T15:15:20.883Z,3.80
2017-09-04T15:17:52.304Z,4.10
2017-09-04T15:20:20.560Z,4.10
2017-09-04T15:22:49.054Z,4.00
2017-09-04T15:25:17.405Z,4.03
2017-09-04T15:27:45.654Z,3.70
2017-09-04T15:30:15.476Z,4.73
2017-09-04T15:32:44.604Z,3.40
2017-09-04T15:35:14.793Z,3.83
2017-09-04T15:37:44.797Z,4.07
2017-09-04T15:40:14.010Z,4.20
2017-09-04T15:42:42.593Z,3.67
2017-09-04T15:45:10.989Z,4.30
2017-09-04T15:47:40.198Z,4.97
2017-09-04T15:50:10.405Z,4.63
2017-09-04T15:52:38.691Z,3.87
2017-09-04T15:55:07.826Z,3.87
2017-09-04T15:57:36.228Z,4.33
2017-09-04T16:00:04.886Z,3.50
2017-09-04T16:02:33.373Z,5.63
2017-09-04T16:05:01.807Z,3.47
2017-09-04T16:07:36.680Z,3.70
2017-09-04T16:10:05.635Z,3.13
2017-09-04T16:12:41.705Z,3.50
2017-09-04T16:15:16.666Z,3.83
2017-09-04T16:18:02.328Z,3.60
2017-09-04T16:20:48.144Z,3.07
2017-09-04T16:23:19.838Z,3.40
2017-09-04T16:25:58.083Z,3.37
2017-09-04T16:28:30.152Z,3.07
2017-09-04T16:31:16.300Z,3.60
2017-09-04T16:33:50.311Z,2.50
2017-09-04T16:36:21.499Z,2.60
2017-09-04T16:39:05.649Z,2.50
2017-09-04T16:41:50.717Z,3.40
2017-09-04T16:44:23.646Z,3.40
2017-09-04T16:47:06.181Z,3.10
2017-09-04T16:49:37.080Z,3.23
2017-09-04T16:52:06.296Z,3.40
2017-09-04T16:54:45.850Z,3.10
2017-09-04T16:57:15.155Z,3.30
2017-09-04T16:59:43.415Z,3.63
2017-09-04T17:02:11.791Z,2.80
2017-09-04T17:04:44.620Z,3.10
2017-09-04T17:07:12.968Z,2.70
2017-09-04T17:09:42.065Z,3.00
2017-09-04T17:12:10.418Z,2.90
2017-09-04T17:14:38.806Z,3.10
2017-09-04T17:17:07.127Z,2.93
2017-09-04T17:19:38.810Z,2.80
2017-09-04T17:22:09.850Z,2.63
2017-09-04T17:24:53.954Z,2.73
2017-09-04T17:27:22.280Z,3.17
2017-09-04T17:29:51.468Z,3.10
2017-09-04T17:32:20.914Z,3.33
2017-09-04T17:34:49.410Z,3.70
2017-09-04T17:37:17.816Z,3.00
2017-09-04T17:39:46.168Z,5.07
2017-09-04T17:44:49.179Z,3.80
2017-09-04T17:47:18.195Z,3.60
2017-09-04T17:49:46.563Z,3.17
2017-09-04T17:52:14.933Z,3.50
2017-09-04T17:54:43.432Z,3.10
2017-09-04T17:57:12.493Z,3.47
2017-09-04T17:59:40.771Z,2.77
2017-09-04T18:02:09.597Z,3.57
2017-09-04T18:04:38.842Z,3.20
2017-09-04T18:07:07.264Z,3.60
2017-09-04T18:09:35.832Z,3.00
2017-09-04T18:12:05.097Z,2.67
2017-09-04T18:14:37.225Z,3.33
2017-09-04T18:17:06.669Z,3.23
2017-09-04T18:19:35.118Z,3.50
2017-09-04T18:22:03.596Z,3.80
2017-09-04T18:24:32.196Z,3.20
2017-09-04T18:27:00.607Z,3.20
2017-09-04T18:29:28.895Z,3.73
2017-09-04T18:31:57.287Z,3.70
2017-09-04T18:34:25.698Z,4.13
2017-09-04T18:36:54.962Z,3.87
2017-09-04T18:39:23.295Z,4.10
2017-09-04T18:41:51.727Z,3.63
2017-09-04T18:44:20.284Z,4.27
2017-09-04T18:46:48.707Z,3.47
2017-09-04T18:49:17.136Z,4.13
2017-09-04T18:51:46.252Z,3.90
2017-09-04T18:54:15.362Z,3.93
2017-09-04T18:56:43.784Z,3.70
2017-09-04T18:59:13.340Z,4.00
2017-09-04T19:01:41.806Z,3.60
2017-09-04T19:04:10.165Z,4.20
2017-09-04T19:06:39.376Z,6.07
2017-09-04T19:09:07.936Z,4.53
2017-09-04T19:11:37.411Z,5.17
2017-09-04T19:14:05.857Z,5.17
2017-09-04T19:16:40.990Z,5.87
2017-09-04T19:19:11.344Z,5.93
2017-09-04T19:21:39.909Z,5.70
2017-09-04T19:24:08.618Z,5.30
2017-09-04T19:26:38.057Z,5.67
2017-09-04T19:29:06.473Z,5.43
2017-09-04T19:31:34.958Z,6.10
2017-09-04T19:34:03.482Z,5.77
2017-09-04T19:36:32.211Z,6.37
2017-09-04T19:39:01.472Z,4.70
2017-09-04T19:41:30.483Z,5.50
2017-09-04T19:43:59.407Z,5.47
2017-09-04T19:46:31.022Z,5.90
2017-09-04T19:48:59.687Z,4.53
2017-09-04T19:51:29.372Z,4.17
2017-09-04T19:53:59.999Z,4.30
2017-09-04T19:56:29.742Z,4.50
2017-09-04T19:58:59.592Z,4.53
2017-09-04T20:01:28.007Z,4.10
2017-09-04T20:03:56.419Z,3.40
2017-09-04T20:06:24.900Z,4.00
2017-09-04T20:08:53.277Z,3.70
2017-09-04T20:11:21.731Z,4.00
2017-09-04T20:13:50.209Z,4.63
2017-09-04T20:19:19.668Z,4.10
2017-09-04T20:21:48.052Z,4.70
2017-09-04T20:24:17.370Z,4.33
2017-09-04T20:26:45.727Z,3.77
2017-09-04T20:29:14.077Z,4.90
2017-09-04T20:31:42.496Z,4.70
2017-09-04T20:34:11.239Z,3.93
2017-09-04T20:36:40.015Z,4.40
2017-09-04T20:39:08.454Z,4.60
2017-09-04T20:41:36.978Z,4.33
2017-09-04T20:44:05.818Z,3.90
2017-09-04T20:46:34.481Z,4.20
2017-09-04T20:49:02.843Z,3.90
2017-09-04T20:51:32.137Z,3.83
2017-09-04T20:54:00.921Z,4.10
2017-09-04T20:56:30.060Z,4.17
2017-09-04T20:58:58.358Z,4.83
2017-09-04T21:01:26.783Z,4.43
2017-09-04T21:03:55.321Z,4.07
2017-09-04T21:06:23.787Z,4.43
2017-09-04T21:08:52.635Z,4.10
2017-09-04T21:11:22.171Z,4.30
2017-09-04T21:13:50.502Z,3.93
2017-09-04T21:16:19.020Z,4.40
2017-09-04T21:18:47.377Z,3.97
2017-09-04T21:21:16.322Z,4.00
2017-09-04T21:23:44.699Z,4.33
2017-09-04T21:26:13.047Z,5.10
2017-09-04T21:28:41.452Z,4.70
2017-09-04T21:31:09.811Z,4.33
2017-09-04T21:33:38.160Z,4.00
2017-09-04T21:36:06.486Z,4.43
2017-09-04T21:38:35.654Z,3.60
2017-09-04T21:41:03.903Z,4.30
2017-09-04T21:43:33.201Z,3.77
2017-09-04T21:46:01.477Z,4.33
2017-09-04T21:48:30.617Z,4.07
2017-09-04T21:50:58.979Z,4.37
2017-09-04T21:53:27.429Z,4.73
2017-09-04T21:55:56.106Z,5.20
2017-09-04T21:58:24.389Z,3.90
2017-09-04T22:00:52.838Z,3.60
2017-09-04T22:03:21.369Z,4.80
2017-09-04T22:05:50.619Z,4.60
2017-09-04T22:08:19.814Z,3.80
2017-09-04T22:10:48.103Z,4.20
2017-09-04T22:13:16.400Z,3.57
2017-09-04T22:15:44.723Z,4.37
2017-09-04T22:18:13.116Z,3.83
2017-09-04T22:20:41.463Z,3.50
2017-09-04T22:23:09.893Z,4.53
2017-09-04T22:25:38.241Z,3.90
2017-09-04T22:28:06.558Z,3.93
2017-09-04T22:30:34.960Z,4.13
2017-09-04T22:33:03.282Z,4.50
2017-09-04T22:35:31.713Z,4.07
2017-09-04T22:37:59.975Z,4.03
2017-09-04T22:40:28.267Z,3.70
2017-09-04T22:42:57.377Z,4.30
2017-09-04T22:45:25.757Z,4.17
2017-09-04T22:47:54.046Z,3.80
2017-09-04T22:50:22.558Z,4.00
2017-09-04T22:52:50.828Z,4.10
2017-09-04T22:55:19.084Z,4.07
2017-09-04T22:57:47.913Z,4.33
2017-09-04T23:00:16.171Z,4.10
2017-09-04T23:02:44.484Z,4.50
2017-09-04T23:05:12.956Z,4.03
2017-09-04T23:07:41.236Z,4.13
2017-09-04T23:10:09.588Z,3.80
2017-09-04T23:12:37.827Z,4.13
2017-09-04T23:15:06.326Z,4.83
2017-09-04T23:17:35.483Z,3.90
2017-09-04T23:20:03.720Z,4.53
2017-09-04T23:22:32.111Z,4.40
2017-09-04T23:25:00.420Z,4.90
2017-09-04T23:27:29.432Z,5.23
2017-09-04T23:29:57.799Z,4.77
2017-09-04T23:32:26.078Z,5.13
2017-09-04T23:34:54.368Z,6.40
2017-09-04T23:37:22.632Z,5.60
2017-09-04T23:39:50.900Z,5.80
2017-09-04T23:42:19.215Z,5.23
2017-09-04T23:44:47.474Z,5.30
2017-09-04T23:47:15.737Z,4.97
2017-09-04T23:49:44.939Z,5.20
2017-09-04T23:52:14.155Z,5.10
2017-09-04T23:54:43.420Z,5.20
2017-09-04T23:57:11.650Z,5.57
2017-09-04T23:59:39.946Z,5.90
